sensor_id;sensor_type;location;lat;lon;timestamp;pressure;altitude;pressure_sealevel;temperature;humidity
74778;BME280;63298;53.164;8.610;2022-09-06T00:00:54;101975.88;;;24.90;57.16
74778;BME280;63298;53.164;8.610;2022-09-06T00:03:20;101974.72;;;24.91;56.98
74778;BME280;63298;53.164;8.610;2022-09-06T00:05:45;101974.72;;;24.91;56.76
74778;BME280;63298;53.164;8.610;2022-09-06T00:08:10;101973.06;;;24.90;57.19
74778;BME280;63298;53.164;8.610;2022-09-06T00:10:36;101970.22;;;24.90;56.89
74778;BME280;63298;53.164;8.610;2022-09-06T00:13:03;101967.41;;;24.90;57.67
74778;BME280;63298;53.164;8.610;2022-09-06T00:15:29;101979.53;;;24.90;57.20
74778;BME280;63298;53.164;8.610;2022-09-06T00:17:57;101970.22;;;24.90;57.30
74778;BME280;63298;53.164;8.610;2022-09-06T00:20:23;101968.53;;;24.89;57.12
74778;BME280;63298;53.164;8.610;2022-09-06T00:22:48;101963.75;;;24.89;57.54
74778;BME280;63298;53.164;8.610;2022-09-06T00:25:14;101968.53;;;24.89;57.43
74778;BME280;63298;53.164;8.610;2022-09-06T00:27:39;101951.59;;;24.89;56.96
74778;BME280;63298;53.164;8.610;2022-09-06T00:30:05;101956.41;;;24.88;57.27
74778;BME280;63298;53.164;8.610;2022-09-06T00:32:31;101957.25;;;24.89;56.85
74778;BME280;63298;53.164;8.610;2022-09-06T00:34:56;101962.06;;;24.88;56.97
74778;BME280;63298;53.164;8.610;2022-09-06T00:37:22;101960.38;;;24.87;56.96
74778;BME280;63298;53.164;8.610;2022-09-06T00:39:47;101962.91;;;24.89;56.70
74778;BME280;63298;53.164;8.610;2022-09-06T00:42:13;101958.38;;;24.88;56.92
74778;BME280;63298;53.164;8.610;2022-09-06T00:44:39;101952.75;;;24.88;57.30
74778;BME280;63298;53.164;8.610;2022-09-06T00:47:06;101947.94;;;24.88;57.52
74778;BME280;63298;53.164;8.610;2022-09-06T00:49:45;101943.44;;;24.87;56.95
74778;BME280;63298;53.164;8.610;2022-09-06T00:52:13;101944.28;;;24.88;57.42
74778;BME280;63298;53.164;8.610;2022-09-06T00:54:40;101940.59;;;24.87;57.39
74778;BME280;63298;53.164;8.610;2022-09-06T00:57:05;101940.59;;;24.87;57.91
74778;BME280;63298;53.164;8.610;2022-09-06T00:59:33;101942.59;;;24.87;58.35
74778;BME280;63298;53.164;8.610;2022-09-06T01:02:00;101943.44;;;24.87;57.49
74778;BME280;63298;53.164;8.610;2022-09-06T01:04:26;101943.72;;;24.86;57.56
74778;BME280;63298;53.164;8.610;2022-09-06T01:20:52;101940.06;;;24.85;57.48
74778;BME280;63298;53.164;8.610;2022-09-06T01:26:04;101936.69;;;24.83;57.47
74778;BME280;63298;53.164;8.610;2022-09-06T01:28:43;101929.91;;;24.84;57.74
74778;BME280;63298;53.164;8.610;2022-09-06T01:36:33;101934.72;;;24.84;58.03
74778;BME280;63298;53.164;8.610;2022-09-06T01:39:01;101930.75;;;24.85;57.35
74778;BME280;63298;53.164;8.610;2022-09-06T01:41:26;101935.56;;;24.84;57.38
74778;BME280;63298;53.164;8.610;2022-09-06T01:43:52;101939.22;;;24.85;57.46
74778;BME280;63298;53.164;8.610;2022-09-06T01:56:42;101920.03;;;24.82;57.45
74778;BME280;63298;53.164;8.610;2022-09-06T02:07:55;101901.44;;;24.81;57.94
74778;BME280;63298;53.164;8.610;2022-09-06T02:10:36;101896.66;;;24.81;57.50
74778;BME280;63298;53.164;8.610;2022-09-06T02:13:06;101905.13;;;24.81;58.04
74778;BME280;63298;53.164;8.610;2022-09-06T02:15:36;101896.66;;;24.81;58.19
74778;BME280;63298;53.164;8.610;2022-09-06T02:18:09;101898.63;;;24.81;57.51
74778;BME280;63298;53.164;8.610;2022-09-06T02:20:39;101903.09;;;24.82;57.29
74778;BME280;63298;53.164;8.610;2022-09-06T02:23:06;101901.44;;;24.81;57.40
74778;BME280;63298;53.164;8.610;2022-09-06T02:25:38;101909.09;;;24.80;57.52
74778;BME280;63298;53.164;8.610;2022-09-06T02:28:05;101906.25;;;24.80;58.18
74778;BME280;63298;53.164;8.610;2022-09-06T02:30:34;101900.63;;;24.80;58.34
74778;BME280;63298;53.164;8.610;2022-09-06T02:33:07;101905.41;;;24.80;57.44
74778;BME280;63298;53.164;8.610;2022-09-06T02:35:47;101902.59;;;24.80;57.18
74778;BME280;63298;53.164;8.610;2022-09-06T02:38:13;101900.63;;;24.80;57.35
74778;BME280;63298;53.164;8.610;2022-09-06T02:40:39;101900.63;;;24.80;57.67
74778;BME280;63298;53.164;8.610;2022-09-06T02:43:05;101903.72;;;24.79;57.51
74778;BME280;63298;53.164;8.610;2022-09-06T02:45:31;101905.41;;;24.80;57.68
74778;BME280;63298;53.164;8.610;2022-09-06T02:47:56;101906.56;;;24.79;57.42
74778;BME280;63298;53.164;8.610;2022-09-06T02:50:21;101903.72;;;24.79;57.53
74778;BME280;63298;53.164;8.610;2022-09-06T02:53:00;101896.94;;;24.80;57.91
74778;BME280;63298;53.164;8.610;2022-09-06T02:55:28;101894.41;;;24.78;58.05
74778;BME280;63298;53.164;8.610;2022-09-06T02:57:54;101890.75;;;24.78;57.75
74778;BME280;63298;53.164;8.610;2022-09-06T03:00:19;101896.09;;;24.79;58.04
74778;BME280;63298;53.164;8.610;2022-09-06T03:02:44;101896.41;;;24.78;57.59
74778;BME280;63298;53.164;8.610;2022-09-06T03:05:09;101904.88;;;24.78;57.82
74778;BME280;63298;53.164;8.610;2022-09-06T03:07:35;101898.38;;;24.77;58.22
74778;BME280;63298;53.164;8.610;2022-09-06T03:10:00;101896.41;;;24.78;58.25
74778;BME280;63298;53.164;8.610;2022-09-06T03:12:25;101888.78;;;24.78;57.56
74778;BME280;63298;53.164;8.610;2022-09-06T03:14:51;101881.44;;;24.77;57.52
74778;BME280;63298;53.164;8.610;2022-09-06T03:17:16;101874.97;;;24.77;57.80
74778;BME280;63298;53.164;8.610;2022-09-06T03:19:42;101877.78;;;24.77;57.79
74778;BME280;63298;53.164;8.610;2022-09-06T03:22:07;101874.97;;;24.77;58.13
74778;BME280;63298;53.164;8.610;2022-09-06T03:24:32;101870.16;;;24.77;58.50
74778;BME280;63298;53.164;8.610;2022-09-06T03:26:58;101856.03;;;24.77;57.88
74778;BME280;63298;53.164;8.610;2022-09-06T03:29:23;101866.50;;;24.77;57.97
74778;BME280;63298;53.164;8.610;2022-09-06T03:31:48;101847.91;;;24.76;58.44
74778;BME280;63298;53.164;8.610;2022-09-06T03:34:14;101848.75;;;24.76;58.34
74778;BME280;63298;53.164;8.610;2022-09-06T03:36:39;101847.56;;;24.77;57.47
74778;BME280;63298;53.164;8.610;2022-09-06T03:39:04;101836.59;;;24.76;57.99
74778;BME280;63298;53.164;8.610;2022-09-06T03:41:29;101834.94;;;24.75;57.82
74778;BME280;63298;53.164;8.610;2022-09-06T03:43:55;101836.91;;;24.74;58.40
74778;BME280;63298;53.164;8.610;2022-09-06T03:46:20;101849.88;;;24.75;58.16
74778;BME280;63298;53.164;8.610;2022-09-06T03:48:45;101849.88;;;24.75;57.99
74778;BME280;63298;53.164;8.610;2022-09-06T03:51:10;101852.72;;;24.75;57.91
74778;BME280;63298;53.164;8.610;2022-09-06T03:53:36;101849.03;;;24.75;58.08
74778;BME280;63298;53.164;8.610;2022-09-06T03:56:01;101836.91;;;24.74;57.80
74778;BME280;63298;53.164;8.610;2022-09-06T03:58:30;101841.41;;;24.75;58.43
74778;BME280;63298;53.164;8.610;2022-09-06T04:01:01;101844.53;;;24.74;58.55
74778;BME280;63298;53.164;8.610;2022-09-06T04:03:26;101847.34;;;24.74;57.95
74778;BME280;63298;53.164;8.610;2022-09-06T04:05:52;101849.63;;;24.72;58.29
74778;BME280;63298;53.164;8.610;2022-09-06T04:08:17;101844.84;;;24.72;58.15
74778;BME280;63298;53.164;8.610;2022-09-06T04:10:42;101862.31;;;24.74;58.07
74778;BME280;63298;53.164;8.610;2022-09-06T04:13:07;101863.44;;;24.73;57.95
74778;BME280;63298;53.164;8.610;2022-09-06T04:15:33;101863.44;;;24.73;58.32
74778;BME280;63298;53.164;8.610;2022-09-06T04:17:58;101854.69;;;24.75;57.75
74778;BME280;63298;53.164;8.610;2022-09-06T04:20:23;101846.50;;;24.73;58.08
74778;BME280;63298;53.164;8.610;2022-09-06T04:22:48;101850.47;;;24.72;58.27
74778;BME280;63298;53.164;8.610;2022-09-06T04:25:14;101858.94;;;24.72;57.97
74778;BME280;63298;53.164;8.610;2022-09-06T04:27:40;101851.31;;;24.73;58.26
74778;BME280;63298;53.164;8.610;2022-09-06T04:30:06;101849.63;;;24.72;58.55
74778;BME280;63298;53.164;8.610;2022-09-06T04:32:32;101855.28;;;24.72;58.30
74778;BME280;63298;53.164;8.610;2022-09-06T04:34:57;101857.28;;;24.71;58.07
74778;BME280;63298;53.164;8.610;2022-09-06T04:37:22;101846.00;;;24.71;58.02
74778;BME280;63298;53.164;8.610;2022-09-06T04:39:48;101858.09;;;24.72;58.01
74778;BME280;63298;53.164;8.610;2022-09-06T04:42:15;101842.34;;;24.71;57.62
74778;BME280;63298;53.164;8.610;2022-09-06T04:44:40;101838.34;;;24.72;57.67
74778;BME280;63298;53.164;8.610;2022-09-06T04:47:15;101850.19;;;24.74;57.57
74778;BME280;63298;53.164;8.610;2022-09-06T04:49:41;101846.81;;;24.72;58.19
74778;BME280;63298;53.164;8.610;2022-09-06T04:52:06;101842.34;;;24.71;58.22
74778;BME280;63298;53.164;8.610;2022-09-06T04:54:32;101844.00;;;24.72;57.80
74778;BME280;63298;53.164;8.610;2022-09-06T04:56:57;101841.16;;;24.72;58.00
74778;BME280;63298;53.164;8.610;2022-09-06T04:59:22;101833.88;;;24.71;57.85
74778;BME280;63298;53.164;8.610;2022-09-06T05:01:48;101832.69;;;24.72;58.10
74778;BME280;63298;53.164;8.610;2022-09-06T05:04:13;101833.25;;;24.74;58.17
74778;BME280;63298;53.164;8.610;2022-09-06T05:06:38;101835.22;;;24.73;58.20
74778;BME280;63298;53.164;8.610;2022-09-06T05:09:04;101832.41;;;24.73;57.23
74778;BME280;63298;53.164;8.610;2022-09-06T05:11:29;101831.25;;;24.74;58.50
74778;BME280;63298;53.164;8.610;2022-09-06T05:13:54;101832.41;;;24.73;58.02
74778;BME280;63298;53.164;8.610;2022-09-06T05:16:19;101838.88;;;24.74;58.54
74778;BME280;63298;53.164;8.610;2022-09-06T05:18:45;101838.59;;;24.75;57.72
74778;BME280;63298;53.164;8.610;2022-09-06T05:21:10;101845.38;;;24.74;58.26
74778;BME280;63298;53.164;8.610;2022-09-06T05:23:35;101842.25;;;24.76;58.42
74778;BME280;63298;53.164;8.610;2022-09-06T05:26:01;101846.72;;;24.77;58.09
74778;BME280;63298;53.164;8.610;2022-09-06T05:28:26;101852.38;;;24.77;58.28
74778;BME280;63298;53.164;8.610;2022-09-06T05:30:51;101852.38;;;24.77;58.23
74778;BME280;63298;53.164;8.610;2022-09-06T05:33:21;101852.38;;;24.77;58.29
74778;BME280;63298;53.164;8.610;2022-09-06T05:35:47;101847.91;;;24.76;58.11
74778;BME280;63298;53.164;8.610;2022-09-06T05:38:13;101864.84;;;24.76;57.68
74778;BME280;63298;53.164;8.610;2022-09-06T05:40:38;101879.78;;;24.76;58.13
74778;BME280;63298;53.164;8.610;2022-09-06T05:43:03;101881.16;;;24.79;57.17
74778;BME280;63298;53.164;8.610;2022-09-06T05:45:29;101883.44;;;24.77;57.55
74778;BME280;63298;53.164;8.610;2022-09-06T05:47:54;101893.91;;;24.76;57.45
74778;BME280;63298;53.164;8.610;2022-09-06T05:50:19;101902.66;;;24.75;57.88
74778;BME280;63298;53.164;8.610;2022-09-06T05:52:44;101894.72;;;24.77;57.44
74778;BME280;63298;53.164;8.610;2022-09-06T05:55:10;101892.22;;;24.75;57.82
74778;BME280;63298;53.164;8.610;2022-09-06T05:57:36;101897.03;;;24.75;58.40
74778;BME280;63298;53.164;8.610;2022-09-06T06:00:03;101888.25;;;24.76;58.14
74778;BME280;63298;53.164;8.610;2022-09-06T06:02:28;101889.06;;;24.77;58.14
74778;BME280;63298;53.164;8.610;2022-09-06T06:04:54;101889.91;;;24.77;58.36
74778;BME280;63298;53.164;8.610;2022-09-06T06:07:19;101877.78;;;24.77;57.97
74778;BME280;63298;53.164;8.610;2022-09-06T06:09:45;101867.34;;;24.77;58.30
74778;BME280;63298;53.164;8.610;2022-09-06T06:12:10;101859.69;;;24.78;58.53
74778;BME280;63298;53.164;8.610;2022-09-06T06:14:35;101854.06;;;24.78;58.29
74778;BME280;63298;53.164;8.610;2022-09-06T06:17:00;101849.25;;;24.78;58.36
74778;BME280;63298;53.164;8.610;2022-09-06T06:19:26;101853.22;;;24.77;58.57
74778;BME280;63298;53.164;8.610;2022-09-06T06:21:51;101867.03;;;24.79;58.56
74778;BME280;63298;53.164;8.610;2022-09-06T06:24:17;101872.69;;;24.79;58.18
74778;BME280;63298;53.164;8.610;2022-09-06T06:26:42;101881.16;;;24.79;57.88
74778;BME280;63298;53.164;8.610;2022-09-06T06:29:07;101898.94;;;24.79;58.15
74778;BME280;63298;53.164;8.610;2022-09-06T06:31:33;101898.38;;;24.77;58.26
74778;BME280;63298;53.164;8.610;2022-09-06T06:33:59;101902.88;;;24.78;56.94
74778;BME280;63298;53.164;8.610;2022-09-06T06:36:26;101923.50;;;24.79;57.36
74778;BME280;63298;53.164;8.610;2022-09-06T06:38:53;101931.13;;;24.78;57.08
74778;BME280;63298;53.164;8.610;2022-09-06T06:41:20;101939.06;;;24.76;57.22
74778;BME280;63298;53.164;8.610;2022-09-06T06:43:45;101931.75;;;24.75;57.23
74778;BME280;63298;53.164;8.610;2022-09-06T06:46:15;101946.69;;;24.76;57.13
74778;BME280;63298;53.164;8.610;2022-09-06T06:48:43;101937.69;;;24.74;57.53
74778;BME280;63298;53.164;8.610;2022-09-06T06:51:10;101944.16;;;24.74;57.81
74778;BME280;63298;53.164;8.610;2022-09-06T06:53:35;101942.50;;;24.73;57.65
74778;BME280;63298;53.164;8.610;2022-09-06T06:56:15;101946.44;;;24.72;58.16
74778;BME280;63298;53.164;8.610;2022-09-06T06:58:41;101947.00;;;24.74;57.67
74778;BME280;63298;53.164;8.610;2022-09-06T07:01:07;101943.34;;;24.74;57.91
74778;BME280;63298;53.164;8.610;2022-09-06T07:03:32;101928.38;;;24.73;57.85
74778;BME280;63298;53.164;8.610;2022-09-06T07:05:57;101931.50;;;24.72;58.08
74778;BME280;63298;53.164;8.610;2022-09-06T07:08:23;101936.84;;;24.73;58.38
74778;BME280;63298;53.164;8.610;2022-09-06T07:10:48;101932.34;;;24.72;58.00
74778;BME280;63298;53.164;8.610;2022-09-06T07:13:14;101920.19;;;24.72;58.22
74778;BME280;63298;53.164;8.610;2022-09-06T07:15:39;101909.75;;;24.72;57.92
74778;BME280;63298;53.164;8.610;2022-09-06T07:18:04;101909.75;;;24.72;57.85
74778;BME280;63298;53.164;8.610;2022-09-06T07:20:29;101905.78;;;24.73;58.15
74778;BME280;63298;53.164;8.610;2022-09-06T07:22:59;101917.09;;;24.73;58.07
74778;BME280;63298;53.164;8.610;2022-09-06T07:25:25;101901.00;;;24.74;58.20
74778;BME280;63298;53.164;8.610;2022-09-06T07:28:04;101905.50;;;24.75;58.34
74778;BME280;63298;53.164;8.610;2022-09-06T07:30:30;101897.88;;;24.75;58.66
74778;BME280;63298;53.164;8.610;2022-09-06T07:32:57;101899.56;;;24.76;58.73
74778;BME280;63298;53.164;8.610;2022-09-06T07:35:23;101901.53;;;24.76;58.42
74778;BME280;63298;53.164;8.610;2022-09-06T07:37:53;101905.19;;;24.76;58.25
74778;BME280;63298;53.164;8.610;2022-09-06T07:40:18;101911.66;;;24.77;58.14
74778;BME280;63298;53.164;8.610;2022-09-06T07:42:44;101912.81;;;24.76;58.27
74778;BME280;63298;53.164;8.610;2022-09-06T07:45:09;101918.97;;;24.78;57.81
74778;BME280;63298;53.164;8.610;2022-09-06T07:47:34;101912.19;;;24.79;58.04
74778;BME280;63298;53.164;8.610;2022-09-06T07:50:00;101915.88;;;24.79;58.03
74778;BME280;63298;53.164;8.610;2022-09-06T07:52:25;101916.72;;;24.80;58.52
74778;BME280;63298;53.164;8.610;2022-09-06T07:54:50;101917.56;;;24.80;58.12
74778;BME280;63298;53.164;8.610;2022-09-06T07:57:16;101919.53;;;24.80;58.47
74778;BME280;63298;53.164;8.610;2022-09-06T07:59:41;101924.88;;;24.81;57.49
74778;BME280;63298;53.164;8.610;2022-09-06T08:02:07;101919.75;;;24.83;57.80
74778;BME280;63298;53.164;8.610;2022-09-06T08:04:32;101928.50;;;24.82;57.58
74778;BME280;63298;53.164;8.610;2022-09-06T08:06:57;101931.03;;;24.83;58.31
74778;BME280;63298;53.164;8.610;2022-09-06T08:09:22;101930.75;;;24.85;58.06
74778;BME280;63298;53.164;8.610;2022-09-06T08:11:48;101925.09;;;24.85;58.17
74778;BME280;63298;53.164;8.610;2022-09-06T08:14:13;101914.34;;;24.87;58.42
74778;BME280;63298;53.164;8.610;2022-09-06T08:16:39;101917.19;;;24.87;58.83
74778;BME280;63298;53.164;8.610;2022-09-06T08:19:06;101922.81;;;24.87;58.32
74778;BME280;63298;53.164;8.610;2022-09-06T08:21:31;101918.00;;;24.87;58.20
74778;BME280;63298;53.164;8.610;2022-09-06T08:23:58;101925.34;;;24.88;57.71
74778;BME280;63298;53.164;8.610;2022-09-06T08:26:26;101916.03;;;24.88;58.06
74778;BME280;63298;53.164;8.610;2022-09-06T08:28:56;101911.22;;;24.88;58.05
74778;BME280;63298;53.164;8.610;2022-09-06T08:31:25;101918.84;;;24.88;58.08
74778;BME280;63298;53.164;8.610;2022-09-06T08:33:52;101912.91;;;24.89;58.25
74778;BME280;63298;53.164;8.610;2022-09-06T08:36:18;101909.25;;;24.89;58.04
74778;BME280;63298;53.164;8.610;2022-09-06T08:38:43;101903.91;;;24.87;58.36
74778;BME280;63298;53.164;8.610;2022-09-06T08:43:36;101906.72;;;24.87;58.41
74778;BME280;63298;53.164;8.610;2022-09-06T08:46:03;101905.88;;;24.87;57.62
74778;BME280;63298;53.164;8.610;2022-09-06T08:48:31;101903.06;;;24.87;57.79
74778;BME280;63298;53.164;8.610;2022-09-06T08:53:59;101897.72;;;24.85;58.05
74778;BME280;63298;53.164;8.610;2022-09-06T08:56:38;101891.75;;;24.87;58.19
74778;BME280;63298;53.164;8.610;2022-09-06T08:59:11;101896.28;;;24.88;57.96
74778;BME280;63298;53.164;8.610;2022-09-06T09:01:55;101887.81;;;24.88;58.24
74778;BME280;63298;53.164;8.610;2022-09-06T09:04:25;101884.13;;;24.87;58.62
74778;BME280;63298;53.164;8.610;2022-09-06T09:06:58;101885.81;;;24.88;58.00
74778;BME280;63298;53.164;8.610;2022-09-06T09:09:28;101873.69;;;24.88;57.28
74778;BME280;63298;53.164;8.610;2022-09-06T09:11:54;101886.97;;;24.87;57.52
74778;BME280;63298;53.164;8.610;2022-09-06T09:14:26;101888.94;;;24.87;58.36
74778;BME280;63298;53.164;8.610;2022-09-06T09:16:55;101887.25;;;24.86;58.29
74778;BME280;63298;53.164;8.610;2022-09-06T09:19:24;101883.28;;;24.87;58.27
74778;BME280;63298;53.164;8.610;2022-09-06T09:21:50;101872.00;;;24.87;57.86
74778;BME280;63298;53.164;8.610;2022-09-06T09:24:15;101871.16;;;24.86;57.66
74778;BME280;63298;53.164;8.610;2022-09-06T09:26:50;101876.25;;;24.84;58.15
74778;BME280;63298;53.164;8.610;2022-09-06T09:29:17;101880.78;;;24.85;57.79
74778;BME280;63298;53.164;8.610;2022-09-06T09:31:48;101879.09;;;24.84;58.15
74778;BME280;63298;53.164;8.610;2022-09-06T09:34:36;101883.88;;;24.84;58.25
74778;BME280;63298;53.164;8.610;2022-09-06T09:37:21;101869.78;;;24.84;58.07
74778;BME280;63298;53.164;8.610;2022-09-06T09:39:50;101866.09;;;24.83;58.39
74778;BME280;63298;53.164;8.610;2022-09-06T09:42:32;101854.31;;;24.81;58.10
74778;BME280;63298;53.164;8.610;2022-09-06T09:44:59;101857.94;;;24.82;58.60
74778;BME280;63298;53.164;8.610;2022-09-06T09:47:30;101851.47;;;24.81;58.12
74778;BME280;63298;53.164;8.610;2022-09-06T09:49:56;101869.22;;;24.82;58.40
74778;BME280;63298;53.164;8.610;2022-09-06T09:52:26;101863.59;;;24.82;58.46
74778;BME280;63298;53.164;8.610;2022-09-06T09:54:57;101856.28;;;24.81;57.82
74778;BME280;63298;53.164;8.610;2022-09-06T09:57:24;101857.94;;;24.82;57.92
74778;BME280;63298;53.164;8.610;2022-09-06T09:59:50;101860.75;;;24.82;58.33
74778;BME280;63298;53.164;8.610;2022-09-06T10:02:29;101857.94;;;24.82;58.27
74778;BME280;63298;53.164;8.610;2022-09-06T10:05:01;101859.94;;;24.81;58.60
74778;BME280;63298;53.164;8.610;2022-09-06T10:07:27;101874.06;;;24.81;58.70
74778;BME280;63298;53.164;8.610;2022-09-06T10:12:44;101882.53;;;24.81;58.53
74778;BME280;63298;53.164;8.610;2022-09-06T10:15:30;101877.69;;;24.82;58.45
74778;BME280;63298;53.164;8.610;2022-09-06T10:17:55;101882.53;;;24.81;58.34
74778;BME280;63298;53.164;8.610;2022-09-06T10:20:27;101870.91;;;24.83;58.82
74778;BME280;63298;53.164;8.610;2022-09-06T10:23:08;101876.56;;;24.83;58.60
74778;BME280;63298;53.164;8.610;2022-09-06T10:30:58;101872.06;;;24.82;58.19
74778;BME280;63298;53.164;8.610;2022-09-06T10:33:43;101870.41;;;24.81;58.86
74778;BME280;63298;53.164;8.610;2022-09-06T10:36:13;101863.06;;;24.80;58.47
74778;BME280;63298;53.164;8.610;2022-09-06T10:38:54;101870.69;;;24.79;57.77
74778;BME280;63298;53.164;8.610;2022-09-06T10:44:25;101883.13;;;24.78;58.81
74778;BME280;63298;53.164;8.610;2022-09-06T10:47:19;101875.78;;;24.77;58.41
74778;BME280;63298;53.164;8.610;2022-09-06T10:49:52;101881.16;;;24.79;58.86
74778;BME280;63298;53.164;8.610;2022-09-06T10:52:36;101884.28;;;24.77;58.51
74778;BME280;63298;53.164;8.610;2022-09-06T10:55:05;101878.63;;;24.77;59.18
74778;BME280;63298;53.164;8.610;2022-09-06T10:57:40;101875.50;;;24.79;58.39
74778;BME280;63298;53.164;8.610;2022-09-06T11:00:09;101866.19;;;24.78;58.78
74778;BME280;63298;53.164;8.610;2022-09-06T11:02:58;101860.25;;;24.80;58.84
74778;BME280;63298;53.164;8.610;2022-09-06T11:05:51;101861.09;;;24.80;58.40
74778;BME280;63298;53.164;8.610;2022-09-06T11:08:24;101863.59;;;24.82;58.78
74778;BME280;63298;53.164;8.610;2022-09-06T11:10:52;101859.09;;;24.81;58.94
74778;BME280;63298;53.164;8.610;2022-09-06T11:13:23;101865.81;;;24.85;59.08
74778;BME280;63298;53.164;8.610;2022-09-06T11:21:04;101851.41;;;24.86;59.50
74778;BME280;63298;53.164;8.610;2022-09-06T11:23:40;101859.28;;;24.89;58.70
74778;BME280;63298;53.164;8.610;2022-09-06T11:26:29;101848.81;;;24.90;59.12
74778;BME280;63298;53.164;8.610;2022-09-06T11:28:57;101854.97;;;24.92;58.94
74778;BME280;63298;53.164;8.610;2022-09-06T11:31:28;101848.19;;;24.93;59.14
74778;BME280;63298;53.164;8.610;2022-09-06T11:34:03;101850.72;;;24.94;59.14
74778;BME280;63298;53.164;8.610;2022-09-06T11:36:43;101846.75;;;24.96;58.87
74778;BME280;63298;53.164;8.610;2022-09-06T11:39:10;101841.94;;;24.96;59.12
74778;BME280;63298;53.164;8.610;2022-09-06T11:41:41;101843.28;;;24.99;59.34
74778;BME280;63298;53.164;8.610;2022-09-06T11:44:09;101850.91;;;24.98;59.80
74778;BME280;63298;53.164;8.610;2022-09-06T11:51:36;101854.28;;;25.00;59.75
74778;BME280;63298;53.164;8.610;2022-09-06T11:54:03;101857.13;;;25.00;59.52
74778;BME280;63298;53.164;8.610;2022-09-06T11:56:33;101855.72;;;24.98;59.82
74778;BME280;63298;53.164;8.610;2022-09-06T11:59:06;101849.78;;;24.99;60.10
74778;BME280;63298;53.164;8.610;2022-09-06T12:01:37;101861.06;;;24.99;59.75
74778;BME280;63298;53.164;8.610;2022-09-06T12:04:05;101861.06;;;24.99;60.08
74778;BME280;63298;53.164;8.610;2022-09-06T12:06:43;101857.13;;;25.00;60.36
74778;BME280;63298;53.164;8.610;2022-09-06T12:09:30;101856.28;;;25.00;59.83
74778;BME280;63298;53.164;8.610;2022-09-06T12:11:56;101856.56;;;24.98;59.86
74778;BME280;63298;53.164;8.610;2022-09-06T12:19:45;101854.28;;;25.00;60.18
74778;BME280;63298;53.164;8.610;2022-09-06T12:24:56;101851.13;;;25.02;60.45
74778;BME280;63298;53.164;8.610;2022-09-06T12:27:32;101857.31;;;25.04;60.03
74778;BME280;63298;53.164;8.610;2022-09-06T12:30:02;101850.22;;;25.06;59.96
74778;BME280;63298;53.164;8.610;2022-09-06T12:32:36;101846.78;;;25.09;60.22
74778;BME280;63298;53.164;8.610;2022-09-06T12:35:10;101842.81;;;25.10;59.89
74778;BME280;63298;53.164;8.610;2022-09-06T12:40:18;101839.88;;;25.15;60.11
74778;BME280;63298;53.164;8.610;2022-09-06T12:42:46;101841.53;;;25.16;60.14
74778;BME280;63298;53.164;8.610;2022-09-06T12:45:12;101839.56;;;25.17;59.91
74778;BME280;63298;53.164;8.610;2022-09-06T12:47:37;101841.25;;;25.18;60.20
74778;BME280;63298;53.164;8.610;2022-09-06T12:50:23;101825.44;;;25.17;59.99
74778;BME280;63298;53.164;8.610;2022-09-06T12:52:54;101824.28;;;25.18;59.84
74778;BME280;63298;53.164;8.610;2022-09-06T12:55:24;101827.97;;;25.18;59.83
74778;BME280;63298;53.164;8.610;2022-09-06T12:57:52;101825.44;;;25.17;60.08
74778;BME280;63298;53.164;8.610;2022-09-06T13:00:19;101822.31;;;25.18;60.10
74778;BME280;63298;53.164;8.610;2022-09-06T13:06:01;101810.47;;;25.16;60.03
74778;BME280;63298;53.164;8.610;2022-09-06T13:08:43;101805.34;;;25.18;59.99
74778;BME280;63298;53.164;8.610;2022-09-06T13:11:13;101805.91;;;25.20;60.02
74778;BME280;63298;53.164;8.610;2022-09-06T13:13:50;101796.25;;;25.21;60.00
74778;BME280;63298;53.164;8.610;2022-09-06T13:16:26;101791.78;;;25.20;60.09
74778;BME280;63298;53.164;8.610;2022-09-06T13:18:52;101791.78;;;25.20;60.35
74778;BME280;63298;53.164;8.610;2022-09-06T13:21:31;101790.28;;;25.23;60.02
74778;BME280;63298;53.164;8.610;2022-09-06T13:23:57;101785.78;;;25.22;60.01
74778;BME280;63298;53.164;8.610;2022-09-06T13:26:37;101791.44;;;25.22;60.07
74778;BME280;63298;53.164;8.610;2022-09-06T13:31:47;101786.97;;;25.21;60.26
74778;BME280;63298;53.164;8.610;2022-09-06T13:34:29;101785.78;;;25.22;60.13
74778;BME280;63298;53.164;8.610;2022-09-06T13:37:00;101776.81;;;25.20;60.40
74778;BME280;63298;53.164;8.610;2022-09-06T13:39:32;101782.97;;;25.22;60.07
74778;BME280;63298;53.164;8.610;2022-09-06T13:42:07;101784.16;;;25.21;60.12
74778;BME280;63298;53.164;8.610;2022-09-06T13:44:34;101779.31;;;25.21;60.34
74778;BME280;63298;53.164;8.610;2022-09-06T13:47:01;101778.16;;;25.22;60.39
74778;BME280;63298;53.164;8.610;2022-09-06T13:49:26;101773.34;;;25.23;60.20
74778;BME280;63298;53.164;8.610;2022-09-06T13:51:53;101774.19;;;25.23;60.27
74778;BME280;63298;53.164;8.610;2022-09-06T13:54:19;101772.75;;;25.26;60.21
74778;BME280;63298;53.164;8.610;2022-09-06T13:56:44;101773.56;;;25.26;60.00
74778;BME280;63298;53.164;8.610;2022-09-06T13:59:10;101759.97;;;25.28;60.22
74778;BME280;63298;53.164;8.610;2022-09-06T14:01:37;101764.13;;;25.31;59.84
74778;BME280;63298;53.164;8.610;2022-09-06T14:04:04;101768.34;;;25.33;59.84
74778;BME280;63298;53.164;8.610;2022-09-06T14:06:29;101763.22;;;25.35;60.00
74778;BME280;63298;53.164;8.610;2022-09-06T14:08:54;101763.13;;;25.41;59.63
74778;BME280;63298;53.164;8.610;2022-09-06T14:11:20;101772.94;;;25.43;59.41
74778;BME280;63298;53.164;8.610;2022-09-06T14:13:46;101762.16;;;25.45;59.89
74778;BME280;63298;53.164;8.610;2022-09-06T14:16:11;101763.50;;;25.48;59.63
74778;BME280;63298;53.164;8.610;2022-09-06T14:18:36;101763.72;;;25.51;59.22
74778;BME280;63298;53.164;8.610;2022-09-06T14:21:02;101758.31;;;25.55;59.32